Tombstone, AZ

2:16 AM MST on January 27, 2015 (GMT -0700)
Sierra Vista Municipal-Libby Army Air Field | Change Station
CLOSE
Current Station
Airport
Location: Sierra Vista,
Elevation: 4718 ft
Nearby Weather Stations

Elev 4718 ft 31.59 °N, 110.34 °W | Updated 21 minutes ago

Partly Cloudy
Partly Cloudy
46 °F
Feels Like 46 °F
N
0
Wind Variable Wind from North

Today
High -- | Low -- °F
--% Chance of Precip.
Yesterday
High -- | Low -- °F
Precip. -- in
7:16 AM 5:50 PM
First Quarter, 52% visible
Pressure 30.20 in
Visibility 10.0 miles
Clouds Scattered Clouds 3800 ft
Mostly Cloudy 9000 ft
Dew Point 43 °F
Humidity 87%
Rainfall 0.00 in
Snow Depth Not available.
UV 0 out of 12
Pollen 3.10 out of 12
Air Quality Not available.
Flu Activity Not available.
METAR KFHU 270855Z 00000KT 10SM SCT038 BKN090 08/06 A3027 RMK SLP225 51007

More Conditions Fewer Conditions

Pressure 30.20 in
Visibility 10.0 miles
Clouds Scattered Clouds 3800 ft
Mostly Cloudy 9000 ft
Dew Point 43 °F
Humidity 87%
Rainfall 0.00 in
Snow Depth Not available.
UV 0 out of 12
Pollen 3.10 out of 12
Air Quality Not available.
Flu Activity Not available.
METAR KFHU 270855Z 00000KT 10SM SCT038 BKN090 08/06 A3027 RMK SLP225 51007

More Conditions Fewer Conditions

10-Day Weather Forecast

Almanac

Astronomy

Jan. 27, 2015 Rise Set
Actual Time
Civil Twilight
Nautical Twilight
Astronomical Twilight
Moon
Length of Visible Light
Length of Day
Tomorrow will be .
, % of the Moon is Illuminated

Today's Extremes

State Highs State Lows

Community

WunderPhotos

Upload Photos

1,790,555 photos uploaded!

WunderBlogs® & News

Nearby

Air Quality

  Air Quality AQ Index Pollutant
Not available.

Snow Depth

Station Depth Elevation

Earthquake Activity

City Distance Mag. Time & Date
Minimum magnitude displayed is 2.5.

Coastal Water Temperatures

Place Temperature

Nearby Weather Stations